DTTG

Gabès Matmata International Airport

Gabès, Tunisia
METAR DTTG 181000Z 07010KT 010V120 9999 FEW020 28/12 Q1016
Observed Flight Rules
Jun-18 @ 10:00 UTC (an hour ago) Visual Flight Rules
Wind Visibility Clouds
70° at 10 knots 10,000+ meters
  • Few at 2,000' AGL
Temperatures Readings
Current 28°C / 82°F
Dewpoint 12°C / 54°F
Humidity 37%
Altimeter 30" Hg
Pressure 1016 hPa
Elevation 5
METAR DTTG 181000Z 07010KT 010V120 9999 FEW020 28/12 Q1016
Observed Flight Rules
Jun-18 @ 10:00 UTC
(an hour ago)
VFR
Wind Visibility
70° at 10 knots 10,000+ meters
Clouds
  • Few at 2,000' AGL
Temperature Dewpoint
28°C / 82°F 12°C / 54°F
Humidity Altimeter Pressure
37% 30" Hg 1016 hPa